Time;durP1;ratioP1;P1;durP2;ratioP2;P2;SDS_P1;SDS_P2;PMS_P1;PMS_P2;Temp;Humidity;BMP_temperature;BMP_pressure;BME280_temperature;BME280_humidity;BME280_pressure;Samples;Min_cycle;Max_cycle;Signal;HPM_P1;HPM_P2
2023/04/02 00:00:31;;;;;;;7.70;1.90;;;9.70;99.90;;;;;;4983653;28;20230;-67
2023/04/02 00:03:03;;;;;;;5.23;1.43;;;9.80;99.90;;;;;;4989260;28;20179;-67
2023/04/02 00:05:30;;;;;;;4.07;1.63;;;10.10;99.90;;;;;;4990673;28;20190;-67
2023/04/02 00:07:59;;;;;;;4.80;1.37;;;9.60;99.90;;;;;;4990178;28;20265;-67
2023/04/02 00:10:33;;;;;;;5.13;2.00;;;9.60;99.90;;;;;;4991077;28;20253;-67
2023/04/02 00:13:17;;;;;;;2.93;1.43;;;9.70;99.90;;;;;;4989947;28;20170;-67
2023/04/02 00:15:46;;;;;;;4.10;1.50;;;9.50;99.90;;;;;;4989222;28;20780;-67
2023/04/02 00:18:17;;;;;;;2.90;1.67;;;9.20;99.90;;;;;;4986826;28;20189;-67
2023/04/02 00:20:51;;;;;;;4.37;1.83;;;9.60;99.90;;;;;;4989067;28;20310;-67
2023/04/02 00:23:18;;;;;;;4.37;1.80;;;9.50;99.90;;;;;;4990541;28;20650;-68
2023/04/02 00:25:45;;;;;;;4.20;1.70;;;9.90;99.90;;;;;;4989126;28;20646;-68
2023/04/02 00:28:15;;;;;;;5.10;1.60;;;9.60;99.90;;;;;;4988814;28;20226;-68
2023/04/02 00:30:52;;;;;;;5.37;1.90;;;9.70;99.90;;;;;;4989260;28;20206;-68
2023/04/02 00:33:22;;;;;;;4.63;2.10;;;9.70;99.90;;;;;;4986823;28;20175;-68
2023/04/02 00:35:49;;;;;;;6.13;1.93;;;9.70;99.90;;;;;;4989448;28;20179;-68
2023/04/02 00:38:34;;;;;;;6.43;1.67;;;9.80;99.90;;;;;;4989398;28;20244;-67
2023/04/02 00:41:06;;;;;;;4.73;2.13;;;9.70;99.90;;;;;;4988611;28;20203;-68
2023/04/02 00:43:36;;;;;;;4.03;1.90;;;9.70;99.90;;;;;;4989952;28;20666;-68
2023/04/02 00:46:09;;;;;;;4.13;1.80;;;9.70;99.90;;;;;;4988299;28;20192;-68
2023/04/02 00:48:53;;;;;;;3.20;1.47;;;9.60;99.90;;;;;;4987284;28;20176;-68
2023/04/02 00:51:25;;;;;;;5.77;2.20;;;9.80;99.90;;;;;;4988257;28;20250;-68
2023/04/02 00:53:53;;;;;;;3.30;2.00;;;9.80;99.90;;;;;;4989513;28;20185;-68
2023/04/02 00:56:30;;;;;;;3.77;2.00;;;9.90;99.90;;;;;;4989996;28;20714;-68
2023/04/02 00:58:57;;;;;;;6.27;2.20;;;9.60;99.90;;;;;;4990793;28;20182;-69
2023/04/02 01:01:26;;;;;;;3.97;1.60;;;9.60;99.90;;;;;;4988747;28;20183;-68
2023/04/02 01:03:57;;;;;;;4.40;2.00;;;9.50;99.90;;;;;;4990223;28;20193;-68
2023/04/02 01:06:28;;;;;;;3.40;1.80;;;9.70;99.90;;;;;;4987857;28;20666;-68
2023/04/02 01:09:15;;;;;;;4.07;1.67;;;9.50;99.90;;;;;;4990984;28;20214;-68
2023/04/02 01:11:40;;;;;;;3.63;1.80;;;9.50;99.90;;;;;;4985880;28;20202;-68
2023/04/02 01:14:31;;;;;;;3.43;2.00;;;9.20;99.90;;;;;;4989457;28;20534;-68
2023/04/02 01:17:14;;;;;;;3.07;1.60;;;9.40;99.90;;;;;;4988185;28;20262;-68
2023/04/02 01:20:09;;;;;;;13.87;2.00;;;9.30;99.90;;;;;;4986628;28;20187;-67
2023/04/02 01:22:54;;;;;;;5.27;2.10;;;10.10;99.90;;;;;;4959724;28;20198;-67
2023/04/02 01:25:51;;;;;;;3.37;1.83;;;9.50;99.90;;;;;;4990048;28;20183;-67
2023/04/02 01:28:21;;;;;;;5.23;2.10;;;9.50;99.90;;;;;;4976709;28;20690;-67
2023/04/02 01:30:54;;;;;;;6.13;2.30;;;9.40;99.90;;;;;;4987834;28;20199;-67
2023/04/02 01:33:22;;;;;;;7.57;3.60;;;9.40;99.90;;;;;;4988239;28;20175;-67
2023/04/02 01:35:57;;;;;;;6.97;2.40;;;9.40;99.90;;;;;;4988619;28;20233;-67
2023/04/02 01:38:32;;;;;;;4.00;2.23;;;9.50;99.90;;;;;;4989276;28;20252;-67
2023/04/02 01:41:07;;;;;;;5.73;2.53;;;9.30;99.90;;;;;;4989235;28;20210;-66
2023/04/02 01:43:54;;;;;;;7.43;2.43;;;9.60;99.90;;;;;;4988892;28;20179;-67
2023/04/02 01:46:31;;;;;;;4.67;2.30;;;9.40;99.90;;;;;;4986967;28;20630;-67
2023/04/02 01:49:01;;;;;;;8.30;4.10;;;9.40;99.90;;;;;;4981238;28;20202;-67
2023/04/02 01:51:32;;;;;;;5.57;3.03;;;9.50;99.90;;;;;;4986998;28;20215;-67
2023/04/02 01:54:02;;;;;;;5.73;2.60;;;9.50;99.90;;;;;;4988542;28;20910;-66
2023/04/02 01:56:29;;;;;;;7.10;2.50;;;9.40;99.90;;;;;;4988536;28;20183;-66
2023/04/02 01:58:57;;;;;;;7.77;2.80;;;9.20;99.90;;;;;;4988934;28;20187;-66
2023/04/02 02:01:27;;;;;;;6.63;2.97;;;9.50;99.90;;;;;;4988772;28;20186;-66
2023/04/02 02:03:53;;;;;;;5.10;2.83;;;9.50;99.90;;;;;;4981896;28;20277;-66
2023/04/02 02:06:19;;;;;;;6.57;2.80;;;9.40;99.90;;;;;;4988877;28;20254;-66
2023/04/02 02:09:00;;;;;;;4.47;2.53;;;9.30;99.90;;;;;;4989440;28;20769;-67
2023/04/02 02:11:28;;;;;;;8.60;2.83;;;9.50;99.90;;;;;;4988253;28;20219;-68
2023/04/02 02:13:56;;;;;;;4.03;2.60;;;9.40;99.90;;;;;;4992450;28;20171;-67
2023/04/02 02:16:22;;;;;;;5.50;2.80;;;9.50;99.90;;;;;;4991761;28;20183;-67
2023/04/02 02:18:55;;;;;;;5.17;2.70;;;9.50;99.90;;;;;;4983622;28;20329;-67
2023/04/02 02:21:42;;;;;;;5.23;3.20;;;9.40;99.90;;;;;;4991419;28;20612;-67
2023/04/02 02:24:24;;;;;;;8.00;2.77;;;9.50;99.90;;;;;;4987313;28;20545;-67
2023/04/02 02:27:05;;;;;;;6.50;3.47;;;9.50;99.90;;;;;;4989357;28;20205;-67
2023/04/02 02:29:36;;;;;;;5.37;2.77;;;9.40;99.90;;;;;;4990710;28;20195;-67
2023/04/02 02:32:02;;;;;;;5.70;3.20;;;9.40;99.90;;;;;;4990718;28;20261;-67
2023/04/02 02:34:41;;;;;;;5.47;2.80;;;9.40;99.90;;;;;;4991167;28;20183;-69
2023/04/02 02:37:30;;;;;;;8.07;3.13;;;9.50;99.90;;;;;;4974548;28;20701;-68
2023/04/02 02:40:02;;;;;;;7.60;3.10;;;9.30;99.90;;;;;;4991520;28;20198;-69
2023/04/02 02:42:37;;;;;;;6.53;3.23;;;9.40;99.90;;;;;;4992231;28;20187;-67
2023/04/02 02:45:10;;;;;;;5.70;2.90;;;9.50;99.90;;;;;;4991704;28;20179;-67
2023/04/02 02:47:37;;;;;;;4.40;3.20;;;9.40;99.90;;;;;;4991887;28;20654;-67
2023/04/02 02:50:07;;;;;;;8.33;3.17;;;8.90;99.90;;;;;;4991695;28;20197;-67
2023/04/02 02:52:37;;;;;;;11.17;3.33;;;9.50;99.90;;;;;;4991341;28;20753;-67
2023/04/02 02:55:27;;;;;;;7.03;3.47;;;9.40;99.90;;;;;;4991220;28;20183;-67
2023/04/02 02:57:58;;;;;;;7.87;3.60;;;9.40;99.90;;;;;;4989612;28;20215;-67
2023/04/02 03:00:25;;;;;;;6.13;2.97;;;9.40;99.90;;;;;;4990598;28;20653;-68
2023/04/02 03:02:53;;;;;;;9.10;3.60;;;9.70;99.90;;;;;;4991261;28;20188;-67
2023/04/02 03:05:25;;;;;;;8.73;3.77;;;9.30;99.90;;;;;;4991831;28;20183;-67
2023/04/02 03:07:54;;;;;;;12.17;3.70;;;9.50;99.90;;;;;;4990906;28;20262;-67
2023/04/02 03:10:22;;;;;;;6.10;3.47;;;9.30;99.90;;;;;;4989546;28;20175;-67
2023/04/02 03:12:55;;;;;;;6.67;3.60;;;9.40;99.90;;;;;;4990199;28;20182;-69
2023/04/02 03:15:39;;;;;;;7.27;3.30;;;9.30;99.90;;;;;;4990564;28;20230;-67
2023/04/02 03:18:16;;;;;;;5.93;3.00;;;9.30;99.90;;;;;;4990369;28;20167;-67
2023/04/02 03:20:51;;;;;;;8.00;3.70;;;9.50;99.90;;;;;;4983091;28;20249;-67
2023/04/02 03:23:27;;;;;;;7.23;3.50;;;9.00;99.90;;;;;;4989198;28;20178;-68
2023/04/02 03:26:07;;;;;;;7.77;3.43;;;8.90;99.90;;;;;;4990706;28;20210;-67
2023/04/02 03:28:40;;;;;;;10.07;3.60;;;9.10;99.90;;;;;;4990110;28;20178;-66
2023/04/02 03:31:17;;;;;;;5.93;3.50;;;9.10;99.90;;;;;;4988870;28;20391;-65
2023/04/02 03:33:49;;;;;;;7.33;3.60;;;9.00;99.90;;;;;;4991241;28;20630;-65
2023/04/02 03:36:42;;;;;;;5.40;3.20;;;8.60;99.90;;;;;;4972495;28;20605;-66
2023/04/02 03:39:16;;;;;;;8.93;3.60;;;8.90;99.90;;;;;;4985189;28;20266;-66
2023/04/02 03:42:13;;;;;;;10.83;3.30;;;8.70;99.90;;;;;;4989726;28;20171;-66
2023/04/02 03:44:45;;;;;;;8.30;3.43;;;8.70;99.90;;;;;;4989078;28;20199;-66
2023/04/02 03:47:22;;;;;;;6.27;3.87;;;8.90;99.90;;;;;;4989571;28;20203;-66
2023/04/02 03:50:06;;;;;;;8.33;3.47;;;8.80;99.90;;;;;;4988675;28;20283;-66
2023/04/02 03:52:35;;;;;;;6.67;3.80;;;8.90;99.90;;;;;;4988633;28;20211;-66
2023/04/02 03:55:08;;;;;;;6.60;4.00;;;8.90;99.90;;;;;;4988889;28;20437;-66
2023/04/02 03:57:42;;;;;;;7.77;3.53;;;8.90;99.90;;;;;;4985312;28;20218;-66
2023/04/02 04:00:22;;;;;;;7.37;3.63;;;9.10;99.90;;;;;;4989532;28;20175;-66
2023/04/02 04:02:58;;;;;;;8.17;3.60;;;8.80;99.90;;;;;;4990023;28;20206;-66
2023/04/02 04:05:35;;;;;;;8.03;3.50;;;8.80;99.90;;;;;;4986589;28;20178;-66
2023/04/02 04:08:05;;;;;;;10.90;4.00;;;8.40;99.90;;;;;;4989661;28;20273;-65
2023/04/02 04:10:32;;;;;;;10.90;4.17;;;8.70;99.90;;;;;;4983530;28;20253;-65
2023/04/02 04:13:10;;;;;;;7.80;4.03;;;8.70;99.90;;;;;;4989666;28;20183;-66
2023/04/02 04:15:41;;;;;;;7.43;3.83;;;8.60;99.90;;;;;;4989669;28;20183;-66
2023/04/02 04:18:55;;;;;;;13.30;3.93;;;8.30;99.90;;;;;;4989033;28;20192;-66
2023/04/02 04:21:36;;;;;;;10.93;3.90;;;9.70;99.90;;;;;;4981705;28;20198;-66
2023/04/02 04:24:05;;;;;;;6.30;4.03;;;8.50;99.90;;;;;;4988730;28;20183;-66
2023/04/02 04:26:33;;;;;;;7.97;4.20;;;8.50;99.90;;;;;;4988909;28;20195;-66
2023/04/02 04:29:26;;;;;;;6.00;3.70;;;8.40;99.90;;;;;;4990593;28;20183;-65
2023/04/02 04:31:54;;;;;;;7.00;3.87;;;8.50;99.90;;;;;;4987349;28;20214;-66
2023/04/02 04:34:35;;;;;;;7.53;4.20;;;8.80;99.90;;;;;;4990464;28;20672;-65
2023/04/02 04:37:06;;;;;;;9.77;4.13;;;7.90;99.90;;;;;;4989567;28;20235;-66
2023/04/02 04:39:37;;;;;;;7.20;4.60;;;8.30;99.90;;;;;;4989077;28;20183;-65
2023/04/02 04:42:05;;;;;;;12.23;4.47;;;8.20;99.90;;;;;;4989708;28;20265;-65
2023/04/02 04:44:45;;;;;;;11.17;4.97;;;8.20;99.90;;;;;;4990066;28;20187;-66
2023/04/02 04:47:17;;;;;;;12.60;4.57;;;8.20;99.90;;;;;;4986933;28;20222;-66
2023/04/02 04:49:51;;;;;;;6.53;3.90;;;8.20;99.90;;;;;;4989829;28;20642;-66
2023/04/02 04:52:34;;;;;;;6.03;3.83;;;8.20;99.90;;;;;;4989533;28;20211;-66
2023/04/02 04:55:00;;;;;;;8.27;4.03;;;8.30;99.90;;;;;;4988099;28;20262;-66
2023/04/02 04:57:35;;;;;;;8.03;3.73;;;8.20;99.90;;;;;;4989491;28;20270;-66
2023/04/02 05:00:17;;;;;;;11.17;3.93;;;8.20;99.90;;;;;;4972979;28;20221;-66
2023/04/02 05:02:56;;;;;;;6.97;4.30;;;8.20;99.90;;;;;;4989194;28;20201;-66
2023/04/02 05:05:28;;;;;;;8.60;3.47;;;8.30;99.90;;;;;;4988837;28;20182;-66
2023/04/02 05:08:13;;;;;;;7.17;3.93;;;8.20;99.90;;;;;;4988745;28;20194;-66
2023/04/02 05:10:50;;;;;;;8.97;3.83;;;8.20;99.90;;;;;;4989046;28;20229;-66
2023/04/02 05:13:52;;;;;;;11.50;4.27;;;8.20;99.90;;;;;;4971128;28;20788;-66
2023/04/02 05:16:35;;;;;;;9.00;4.20;;;8.20;99.90;;;;;;4987704;28;20171;-65
2023/04/02 05:19:13;;;;;;;13.40;4.13;;;8.20;99.90;;;;;;4987040;28;20191;-66
2023/04/02 05:21:57;;;;;;;10.33;4.00;;;8.10;99.90;;;;;;4988452;28;20251;-66
2023/04/02 05:24:37;;;;;;;12.93;4.57;;;8.10;99.90;;;;;;4981698;28;20555;-65
2023/04/02 05:27:30;;;;;;;7.77;4.17;;;8.10;99.90;;;;;;4972810;28;20658;-66
2023/04/02 05:30:09;;;;;;;11.77;4.43;;;8.10;99.90;;;;;;4961688;28;20202;-67
2023/04/02 05:32:40;;;;;;;7.30;3.77;;;7.80;99.90;;;;;;4988543;28;20269;-67
2023/04/02 05:35:09;;;;;;;9.80;4.57;;;7.60;99.90;;;;;;4988314;28;20178;-66
2023/04/02 05:37:38;;;;;;;8.27;4.37;;;8.00;99.90;;;;;;4988817;28;20223;-68
2023/04/02 05:40:22;;;;;;;8.40;4.57;;;8.00;99.90;;;;;;4987959;28;20184;-66
2023/04/02 05:42:51;;;;;;;10.13;4.50;;;8.00;99.90;;;;;;4982546;28;20651;-67
2023/04/02 05:45:30;;;;;;;8.93;3.90;;;7.80;99.90;;;;;;4987706;28;20259;-67
2023/04/02 05:48:00;;;;;;;11.20;5.20;;;7.90;99.90;;;;;;4990671;28;20681;-66
2023/04/02 05:50:36;;;;;;;10.37;4.93;;;7.80;99.90;;;;;;4992589;28;20178;-66
2023/04/02 05:53:29;;;;;;;10.67;4.67;;;8.20;99.90;;;;;;4992194;28;20187;-66
2023/04/02 05:56:14;;;;;;;9.37;4.93;;;7.70;99.90;;;;;;4992218;28;20180;-66
2023/04/02 05:59:21;;;;;;;9.10;4.87;;;7.70;99.90;;;;;;4991149;28;20173;-66
2023/04/02 06:02:07;;;;;;;11.13;5.93;;;7.60;99.90;;;;;;4931965;29;20193;-66
2023/04/02 06:04:52;;;;;;;13.63;6.37;;;7.70;99.90;;;;;;4980442;28;20198;-65
2023/04/02 06:07:23;;;;;;;8.80;5.43;;;7.70;99.90;;;;;;4990176;28;20175;-65
2023/04/02 06:09:55;;;;;;;11.77;6.30;;;7.50;99.90;;;;;;4991094;28;20209;-65
2023/04/02 06:12:36;;;;;;;11.53;6.10;;;7.70;99.90;;;;;;4993758;28;20222;-65
2023/04/02 06:15:02;;;;;;;10.63;6.00;;;7.80;99.90;;;;;;4993021;28;20180;-65
2023/04/02 06:17:28;;;;;;;11.43;5.83;;;;;;;;;;4992153;28;20528;-66
2023/04/02 06:19:56;;;;;;;9.03;5.50;;;8.00;99.90;;;;;;4991485;28;20269;-66
2023/04/02 06:22:35;;;;;;;10.43;5.20;;;8.00;99.90;;;;;;4991848;28;20175;-66
2023/04/02 06:25:27;;;;;;;10.10;5.20;;;8.00;99.90;;;;;;4991187;28;20221;-66
2023/04/02 06:27:55;;;;;;;9.03;5.03;;;8.10;99.90;;;;;;4977486;28;20242;-66
2023/04/02 06:30:34;;;;;;;9.40;5.20;;;8.20;99.90;;;;;;4992004;28;20179;-66
2023/04/02 06:33:00;;;;;;;9.73;4.93;;;8.20;99.90;;;;;;4991455;28;20183;-66
2023/04/02 06:35:26;;;;;;;7.37;4.93;;;8.30;99.90;;;;;;4990620;28;20586;-66
2023/04/02 06:37:56;;;;;;;11.47;5.00;;;8.40;99.90;;;;;;4992534;28;20218;-66
2023/04/02 06:40:32;;;;;;;10.23;5.50;;;8.60;99.90;;;;;;4990244;28;20265;-67
2023/04/02 06:43:01;;;;;;;9.30;5.30;;;8.70;99.90;;;;;;4991448;28;20190;-66
2023/04/02 06:45:38;;;;;;;11.00;5.50;;;9.00;99.90;;;;;;4990503;28;20233;-66
2023/04/02 06:48:05;;;;;;;15.07;5.50;;;9.00;99.90;;;;;;4991940;28;20693;-65
2023/04/02 06:50:44;;;;;;;10.97;5.13;;;8.70;99.90;;;;;;4991003;28;20198;-66
2023/04/02 06:53:31;;;;;;;11.87;5.57;;;8.70;99.90;;;;;;4991252;28;20179;-66
2023/04/02 06:56:18;;;;;;;9.70;4.80;;;8.20;99.90;;;;;;4991520;28;20194;-66
2023/04/02 06:58:44;;;;;;;7.97;4.40;;;8.70;99.90;;;;;;4991436;28;20175;-65
2023/04/02 07:01:16;;;;;;;10.67;5.00;;;8.90;99.90;;;;;;4992070;28;20557;-67
2023/04/02 07:03:42;;;;;;;10.23;4.87;;;8.60;99.90;;;;;;4991690;28;20190;-66
2023/04/02 07:06:16;;;;;;;12.60;5.27;;;9.00;99.90;;;;;;4991653;28;20179;-66
2023/04/02 07:08:42;;;;;;;10.30;4.93;;;9.10;99.90;;;;;;4988157;28;20190;-66
2023/04/02 07:11:16;;;;;;;14.07;5.20;;;9.20;99.90;;;;;;4992157;28;20207;-67
2023/04/02 07:13:43;;;;;;;6.83;4.77;;;9.30;99.90;;;;;;4988827;28;20217;-67
2023/04/02 07:16:30;;;;;;;9.23;5.03;;;9.30;99.90;;;;;;4990869;28;20197;-68
2023/04/02 07:18:59;;;;;;;9.40;4.97;;;9.60;99.90;;;;;;4989814;28;20705;-68
2023/04/02 07:21:28;;;;;;;10.23;4.93;;;9.40;99.90;;;;;;4989876;28;20180;-68
2023/04/02 07:23:54;;;;;;;10.23;5.00;;;9.80;99.90;;;;;;4990995;28;20226;-67
2023/04/02 07:26:24;;;;;;;8.57;4.90;;;9.50;99.90;;;;;;4992419;28;20183;-67
2023/04/02 07:28:50;;;;;;;9.73;4.60;;;9.70;99.90;;;;;;4989922;28;20191;-68
2023/04/02 07:31:24;;;;;;;9.77;5.30;;;9.60;99.90;;;;;;4985083;28;20249;-67
2023/04/02 07:33:52;;;;;;;8.37;4.43;;;9.60;99.90;;;;;;4989364;28;20177;-73
2023/04/02 07:36:21;;;;;;;10.53;4.77;;;9.90;99.90;;;;;;4990530;28;20219;-72
2023/04/02 07:38:47;;;;;;;12.50;4.90;;;9.60;99.90;;;;;;4990167;28;20191;-71
2023/04/02 07:41:13;;;;;;;7.23;5.13;;;9.70;99.90;;;;;;4992125;28;20643;-70
2023/04/02 07:43:39;;;;;;;8.20;5.40;;;10.10;99.90;;;;;;4990880;28;20186;-70
2023/04/02 07:46:06;;;;;;;6.87;4.23;;;9.80;99.90;;;;;;4992115;28;20180;-71
2023/04/02 07:48:32;;;;;;;11.17;6.73;;;9.80;99.90;;;;;;4990140;28;20241;-71
2023/04/02 07:50:59;;;;;;;11.57;4.80;;;9.80;99.90;;;;;;4991092;28;20206;-71
2023/04/02 07:53:31;;;;;;;7.73;5.13;;;9.80;99.90;;;;;;4990352;28;20191;-70
2023/04/02 07:56:00;;;;;;;12.97;4.77;;;9.90;99.90;;;;;;4990632;28;20190;-68
2023/04/02 07:58:26;;;;;;;10.30;4.83;;;10.00;99.90;;;;;;4989091;28;20222;-68
2023/04/02 08:00:51;;;;;;;9.93;5.07;;;10.10;99.90;;;;;;4990020;28;20229;-66
2023/04/02 08:03:17;;;;;;;10.50;4.60;;;10.20;99.90;;;;;;4990513;28;20183;-66
2023/04/02 08:05:48;;;;;;;10.50;4.67;;;10.30;99.90;;;;;;4990417;28;20175;-66
2023/04/02 08:08:13;;;;;;;8.97;4.87;;;10.50;99.90;;;;;;4990584;28;20175;-66
2023/04/02 08:10:39;;;;;;;9.93;5.27;;;10.60;99.90;;;;;;4988015;28;20183;-66
2023/04/02 08:13:05;;;;;;;14.70;5.23;;;10.80;99.90;;;;;;4991197;28;20203;-69
2023/04/02 08:15:30;;;;;;;8.77;5.30;;;11.00;99.90;;;;;;4989663;28;20642;-70
2023/04/02 08:17:56;;;;;;;10.13;4.67;;;11.10;99.90;;;;;;4990016;28;20187;-69
2023/04/02 08:20:22;;;;;;;8.47;4.70;;;11.10;99.90;;;;;;4989505;28;20314;-68
2023/04/02 08:22:48;;;;;;;10.03;5.17;;;11.40;99.90;;;;;;4990621;28;20554;-68
2023/04/02 08:25:15;;;;;;;7.80;5.13;;;11.50;99.90;;;;;;4990309;28;20179;-68
2023/04/02 08:27:40;;;;;;;9.37;4.73;;;11.90;99.90;;;;;;4991358;28;20179;-68
2023/04/02 08:30:08;;;;;;;9.13;4.77;;;11.60;99.90;;;;;;4990568;28;20490;-68
2023/04/02 08:32:33;;;;;;;9.37;4.60;;;12.00;99.90;;;;;;4988675;28;20214;-68
2023/04/02 08:34:59;;;;;;;8.47;4.27;;;12.20;99.90;;;;;;4989313;28;20198;-68
2023/04/02 08:37:25;;;;;;;7.47;4.50;;;12.50;99.90;;;;;;4987523;28;20247;-68
2023/04/02 08:39:50;;;;;;;6.57;4.20;;;12.20;99.90;;;;;;4990223;28;20210;-68
2023/04/02 08:42:25;;;;;;;7.90;4.20;;;12.20;99.90;;;;;;4987922;28;20328;-69
2023/04/02 08:45:11;;;;;;;7.97;4.50;;;12.00;99.90;;;;;;4979730;28;20187;-68
2023/04/02 08:47:39;;;;;;;6.95;4.18;;;11.90;99.90;;;;;;4985995;28;20229;-67
2023/04/02 08:50:08;;;;;;;7.60;3.97;;;11.90;99.90;;;;;;4989897;28;20547;-67
2023/04/02 08:52:37;;;;;;;6.05;3.90;;;11.60;99.90;;;;;;4987995;28;20702;-68
2023/04/02 08:55:10;;;;;;;4.40;3.30;;;11.60;99.90;;;;;;4989489;28;20270;-68
2023/04/02 08:57:50;;;;;;;8.93;3.70;;;11.60;99.90;;;;;;4988940;28;20179;-67
2023/04/02 09:00:39;;;;;;;7.00;3.47;;;11.50;99.90;;;;;;4975065;28;20698;-67
2023/04/02 09:03:16;;;;;;;6.17;3.93;;;11.70;99.90;;;;;;4989971;28;20187;-67
2023/04/02 09:05:44;;;;;;;7.40;3.83;;;11.70;99.90;;;;;;4988943;28;20183;-67
2023/04/02 09:08:23;;;;;;;7.13;4.10;;;11.60;99.90;;;;;;4971649;28;20329;-67
2023/04/02 09:11:05;;;;;;;15.93;4.17;;;11.50;99.90;;;;;;4988782;28;20206;-67
2023/04/02 09:13:36;;;;;;;6.63;3.83;;;11.40;99.90;;;;;;4988689;28;20252;-68
2023/04/02 09:16:02;;;;;;;7.93;4.23;;;;;;;;;;4984705;28;20183;-67
2023/04/02 09:18:31;;;;;;;5.97;3.60;;;11.40;99.90;;;;;;4988016;28;20244;-67
2023/04/02 09:20:56;;;;;;;7.93;3.97;;;11.40;99.90;;;;;;4988961;28;20685;-68
2023/04/02 09:23:24;;;;;;;7.07;3.50;;;11.80;99.90;;;;;;4994295;28;20186;-66
2023/04/02 09:25:52;;;;;;;6.53;3.60;;;11.80;99.90;;;;;;4993867;28;20546;-67
2023/04/02 09:28:22;;;;;;;6.30;3.83;;;12.00;99.90;;;;;;4994109;28;20214;-69
2023/04/02 09:30:56;;;;;;;5.27;3.63;;;11.70;99.90;;;;;;4993016;28;20191;-68
2023/04/02 09:33:40;;;;;;;8.00;4.40;;;11.70;99.90;;;;;;4994756;28;20195;-68
2023/04/02 09:36:17;;;;;;;7.17;4.30;;;11.40;99.90;;;;;;4993997;28;20752;-68
2023/04/02 09:38:59;;;;;;;7.00;4.10;;;11.20;99.90;;;;;;4984206;28;20661;-68
2023/04/02 09:41:27;;;;;;;8.97;4.20;;;11.20;99.90;;;;;;4977013;28;20650;-68
2023/04/02 09:44:21;;;;;;;8.33;4.00;;;11.00;99.90;;;;;;4992838;28;20191;-68
2023/04/02 09:46:53;;;;;;;8.57;3.63;;;10.80;99.90;;;;;;4992921;28;20266;-68
2023/04/02 09:49:23;;;;;;;7.67;3.50;;;10.90;99.90;;;;;;4989319;28;20270;-68
2023/04/02 09:52:16;;;;;;;7.00;3.70;;;10.90;99.90;;;;;;4993257;28;20264;-68
2023/04/02 09:54:43;;;;;;;6.27;3.47;;;11.00;99.90;;;;;;4983051;28;20191;-68
2023/04/02 09:57:22;;;;;;;8.93;3.77;;;11.00;99.90;;;;;;4992462;28;20198;-68
2023/04/02 10:00:08;;;;;;;6.30;3.60;;;10.90;99.90;;;;;;4994170;28;20207;-68
2023/04/02 10:02:34;;;;;;;9.00;4.50;;;10.60;99.90;;;;;;4993298;28;20214;-68
2023/04/02 10:05:03;;;;;;;10.23;5.37;;;11.10;99.90;;;;;;4993991;28;20198;-69
2023/04/02 10:07:38;;;;;;;7.87;4.63;;;10.70;99.90;;;;;;4993007;28;20191;-68
2023/04/02 10:10:16;;;;;;;12.27;4.90;;;10.60;99.90;;;;;;4986602;28;20700;-68
2023/04/02 10:12:46;;;;;;;8.43;4.63;;;10.60;99.90;;;;;;4992542;28;20217;-68
2023/04/02 10:15:17;;;;;;;9.77;4.23;;;10.50;99.90;;;;;;4993645;28;20654;-68
2023/04/02 10:17:43;;;;;;;6.80;3.80;;;;;;;;;;4993217;28;20230;-68
2023/04/02 10:20:25;;;;;;;6.77;3.40;;;11.20;99.90;;;;;;4976103;28;20179;-68
2023/04/02 10:22:50;;;;;;;3.63;2.67;;;11.70;99.90;;;;;;4993019;28;20211;-69
2023/04/02 10:25:20;;;;;;;5.10;2.87;;;12.50;99.90;;;;;;4993669;28;20743;-68
2023/04/02 10:28:07;;;;;;;4.13;2.03;;;13.20;99.90;;;;;;4993028;28;20214;-68
2023/04/02 10:31:04;;;;;;;3.05;1.60;;;13.80;99.90;;;;;;4992592;28;20202;-69
2023/04/02 10:33:36;;;;;;;2.65;1.48;;;13.50;99.90;;;;;;4964987;28;20398;-69
2023/04/02 10:36:04;;;;;;;1.95;1.45;;;13.10;99.90;;;;;;4992506;28;20215;-69
2023/04/02 10:38:41;;;;;;;3.33;1.80;;;12.90;99.90;;;;;;4993438;28;20191;-69
2023/04/02 10:41:46;;;;;;;1.73;1.48;;;12.40;99.90;;;;;;4992957;28;20302;-69
2023/04/02 10:44:23;;;;;;;4.67;1.87;;;11.90;99.90;;;;;;4992569;28;20175;-69
2023/04/02 10:47:04;;;;;;;3.08;1.63;;;11.70;99.90;;;;;;4985816;28;20171;-68
2023/04/02 10:49:44;;;;;;;1.93;1.30;;;11.60;99.90;;;;;;4993936;28;20175;-68
2023/04/02 10:52:50;;;;;;;3.77;2.00;;;11.50;99.90;;;;;;4991475;28;20223;-69
2023/04/02 10:55:22;;;;;;;2.77;1.60;;;11.40;99.90;;;;;;4972239;28;20199;-69
2023/04/02 10:57:50;;;;;;;3.50;1.83;;;11.20;99.90;;;;;;4992202;28;20183;-69
2023/04/02 11:00:37;;;;;;;2.63;2.03;;;11.20;99.90;;;;;;4992463;28;20213;-69
2023/04/02 11:03:13;;;;;;;3.43;1.80;;;11.10;99.90;;;;;;4988193;28;20171;-69
2023/04/02 11:05:50;;;;;;;3.33;1.73;;;11.00;99.90;;;;;;4973284;28;20646;-69
2023/04/02 11:08:29;;;;;;;2.83;1.77;;;11.00;99.90;;;;;;4991243;28;20242;-69
2023/04/02 11:11:14;;;;;;;3.20;1.70;;;10.90;99.90;;;;;;4991933;28;20225;-69
2023/04/02 11:13:49;;;;;;;4.70;2.40;;;11.00;99.90;;;;;;4985186;28;20179;-69
2023/04/02 11:16:14;;;;;;;3.60;1.90;;;11.10;99.90;;;;;;4991811;28;20182;-69
2023/04/02 11:18:41;;;;;;;3.50;1.80;;;11.10;99.90;;;;;;4990821;28;20183;-69
2023/04/02 11:21:26;;;;;;;2.80;1.57;;;11.20;99.90;;;;;;4989907;28;21050;-69
2023/04/02 11:24:00;;;;;;;2.67;1.63;;;11.30;99.90;;;;;;4989288;28;20273;-69
2023/04/02 11:26:32;;;;;;;3.17;1.70;;;11.10;99.90;;;;;;4988694;28;20182;-69
2023/04/02 11:29:15;;;;;;;3.63;2.13;;;11.30;99.90;;;;;;4973587;28;20210;-69
2023/04/02 11:31:42;;;;;;;3.53;1.70;;;11.40;99.90;;;;;;4989338;28;20211;-73
2023/04/02 11:34:13;;;;;;;3.07;1.90;;;11.30;99.90;;;;;;4991293;28;20202;-69
2023/04/02 11:36:53;;;;;;;4.40;1.93;;;11.20;99.90;;;;;;4991870;28;20725;-69
2023/04/02 11:39:58;;;;;;;3.13;2.40;;;11.30;99.90;;;;;;4991217;28;20291;-69
2023/04/02 11:42:34;;;;;;;6.17;2.20;;;11.30;99.90;;;;;;4891351;29;20190;-69
2023/04/02 11:45:19;;;;;;;4.83;2.63;;;11.40;99.90;;;;;;4894294;29;20194;-69
2023/04/02 11:48:00;;;;;;;5.87;3.40;;;11.50;99.90;;;;;;4941349;28;20245;-69
2023/04/02 11:50:33;;;;;;;5.80;2.40;;;11.60;99.90;;;;;;4985608;28;20685;-69
2023/04/02 11:53:11;;;;;;;3.33;2.37;;;11.80;99.90;;;;;;4990629;28;20284;-69
2023/04/02 11:55:40;;;;;;;6.80;2.77;;;12.40;99.90;;;;;;4990732;28;20193;-70
2023/04/02 11:58:23;;;;;;;4.63;2.57;;;12.80;99.90;;;;;;4990266;28;20408;-69
2023/04/02 12:01:04;;;;;;;7.60;3.17;;;12.60;99.90;;;;;;4988850;28;20385;-69
2023/04/02 12:03:48;;;;;;;5.65;3.22;;;12.40;99.90;;;;;;4991640;28;20242;-69
2023/04/02 12:06:41;;;;;;;8.27;2.93;;;12.10;99.90;;;;;;4990783;28;20167;-68
2023/04/02 12:09:17;;;;;;;6.23;3.30;;;11.90;99.90;;;;;;4986440;28;20203;-69
2023/04/02 12:11:44;;;;;;;8.17;3.47;;;11.80;99.90;;;;;;4987648;28;20214;-69
2023/04/02 12:14:47;;;;;;;8.47;4.40;;;11.70;99.90;;;;;;4989641;28;20692;-68
2023/04/02 12:17:38;;;;;;;9.27;3.83;;;11.90;99.90;;;;;;4983582;28;20265;-69
2023/04/02 12:20:08;;;;;;;9.80;3.67;;;12.20;99.90;;;;;;4987930;28;20269;-69
2023/04/02 12:22:38;;;;;;;9.73;3.53;;;12.60;99.90;;;;;;4989714;28;20187;-69
2023/04/02 12:25:21;;;;;;;9.03;3.63;;;12.50;99.90;;;;;;4991022;28;20285;-69
2023/04/02 12:28:01;;;;;;;9.37;4.00;;;12.70;99.90;;;;;;4972499;28;20183;-69
2023/04/02 12:30:27;;;;;;;8.20;4.27;;;12.90;99.90;;;;;;4987042;28;20189;-69
2023/04/02 12:32:55;;;;;;;8.75;3.60;;;13.00;99.90;;;;;;4988778;28;20202;-69
2023/04/02 12:35:33;;;;;;;12.63;3.95;;;13.40;99.90;;;;;;4990109;28;20209;-69
2023/04/02 12:37:59;;;;;;;7.55;3.88;;;13.90;99.90;;;;;;4989797;28;20314;-69
2023/04/02 12:40:26;;;;;;;12.20;3.60;;;14.80;99.90;;;;;;4990526;28;20179;-69
2023/04/02 12:42:52;;;;;;;10.32;3.28;;;16.00;99.90;;;;;;4989821;28;20182;-69
2023/04/02 12:45:24;;;;;;;11.93;3.53;;;16.00;99.90;;;;;;4990076;28;20179;-69
2023/04/02 12:47:52;;;;;;;9.52;3.65;;;16.00;99.90;;;;;;4990297;28;20191;-69
2023/04/02 12:50:19;;;;;;;8.80;3.35;;;15.90;99.90;;;;;;4989565;28;20730;-69
2023/04/02 12:52:47;;;;;;;8.23;3.05;;;16.60;99.90;;;;;;4989059;28;20241;-69
2023/04/02 12:55:22;;;;;;;7.68;2.97;;;16.80;99.90;;;;;;4988443;28;20262;-69
2023/04/02 12:57:53;;;;;;;7.32;3.10;;;16.30;99.90;;;;;;4987477;28;20187;-69
2023/04/02 13:00:19;;;;;;;5.43;2.65;;;16.40;99.90;;;;;;4990088;28;20179;-69
2023/04/02 13:02:48;;;;;;;6.43;2.50;;;16.30;99.90;;;;;;4989108;28;20208;-69
2023/04/02 13:05:32;;;;;;;6.68;3.03;;;15.40;99.90;;;;;;4989705;28;20653;-68
2023/04/02 13:07:58;;;;;;;7.70;2.50;;;15.20;99.90;;;;;;4989181;28;20179;-69
2023/04/02 13:10:26;;;;;;;6.05;2.75;;;15.70;99.90;;;;;;4989713;28;20179;-69
2023/04/02 13:12:57;;;;;;;6.28;2.45;;;16.70;99.90;;;;;;4989848;28;20211;-69
2023/04/02 13:15:27;;;;;;;7.63;2.65;;;17.00;99.90;;;;;;4990162;28;20183;-69
2023/04/02 13:18:21;;;;;;;4.22;2.55;;;16.30;99.90;;;;;;4987089;28;20163;-69
2023/04/02 13:21:14;;;;;;;5.55;2.20;;;15.60;99.90;;;;;;4983344;28;20206;-69
2023/04/02 13:23:40;;;;;;;5.28;2.35;;;15.30;99.90;;;;;;4963653;28;20273;-69
2023/04/02 13:26:16;;;;;;;5.03;2.08;;;16.30;99.90;;;;;;4988082;28;20658;-69
2023/04/02 13:29:18;;;;;;;6.13;2.80;;;17.30;99.90;;;;;;4989005;28;20211;-69
2023/04/02 13:31:44;;;;;;;5.40;2.30;;;17.20;99.90;;;;;;4990304;28;20226;-70